sensor_id;sensor_type;location;lat;lon;timestamp;temperature;humidity
29687;DHT22;16599;47.078;15.536;2023-04-24T00:01:23;8.10;99.90
29687;DHT22;16599;47.078;15.536;2023-04-24T00:03:50;8.30;99.90
29687;DHT22;16599;47.078;15.536;2023-04-24T00:06:17;8.40;99.90
29687;DHT22;16599;47.078;15.536;2023-04-24T00:08:44;8.30;99.90
29687;DHT22;16599;47.078;15.536;2023-04-24T00:11:11;8.00;99.90
29687;DHT22;16599;47.078;15.536;2023-04-24T00:13:38;7.90;99.90
29687;DHT22;16599;47.078;15.536;2023-04-24T00:16:05;7.60;99.90
29687;DHT22;16599;47.078;15.536;2023-04-24T00:18:32;7.50;99.90
29687;DHT22;16599;47.078;15.536;2023-04-24T00:20:59;7.40;99.90
29687;DHT22;16599;47.078;15.536;2023-04-24T00:23:26;7.50;99.90
29687;DHT22;16599;47.078;15.536;2023-04-24T00:25:53;7.60;99.90
29687;DHT22;16599;47.078;15.536;2023-04-24T00:28:20;7.40;99.90
29687;DHT22;16599;47.078;15.536;2023-04-24T00:30:47;7.60;99.90
29687;DHT22;16599;47.078;15.536;2023-04-24T00:33:13;7.40;99.90
29687;DHT22;16599;47.078;15.536;2023-04-24T00:35:41;7.20;99.90
29687;DHT22;16599;47.078;15.536;2023-04-24T00:38:08;7.30;99.90
29687;DHT22;16599;47.078;15.536;2023-04-24T00:40:34;7.50;99.90
29687;DHT22;16599;47.078;15.536;2023-04-24T00:43:01;7.40;99.90
29687;DHT22;16599;47.078;15.536;2023-04-24T00:45:28;7.60;99.90
29687;DHT22;16599;47.078;15.536;2023-04-24T00:47:58;7.60;99.90
29687;DHT22;16599;47.078;15.536;2023-04-24T00:50:25;7.40;99.90
29687;DHT22;16599;47.078;15.536;2023-04-24T00:52:53;7.30;99.90
29687;DHT22;16599;47.078;15.536;2023-04-24T00:55:20;7.40;99.90
29687;DHT22;16599;47.078;15.536;2023-04-24T00:57:47;7.20;99.90
29687;DHT22;16599;47.078;15.536;2023-04-24T01:00:15;7.30;99.90
29687;DHT22;16599;47.078;15.536;2023-04-24T01:02:46;7.50;99.90
29687;DHT22;16599;47.078;15.536;2023-04-24T01:05:14;7.50;99.90
29687;DHT22;16599;47.078;15.536;2023-04-24T01:07:43;7.70;99.90
29687;DHT22;16599;47.078;15.536;2023-04-24T01:10:13;7.40;99.90
29687;DHT22;16599;47.078;15.536;2023-04-24T01:12:40;7.40;99.90
29687;DHT22;16599;47.078;15.536;2023-04-24T01:15:08;7.60;99.90
29687;DHT22;16599;47.078;15.536;2023-04-24T01:17:35;7.20;99.90
29687;DHT22;16599;47.078;15.536;2023-04-24T01:20:02;7.40;99.90
29687;DHT22;16599;47.078;15.536;2023-04-24T01:22:35;7.40;99.90
29687;DHT22;16599;47.078;15.536;2023-04-24T01:25:02;7.40;99.90
29687;DHT22;16599;47.078;15.536;2023-04-24T01:27:29;7.50;99.90
29687;DHT22;16599;47.078;15.536;2023-04-24T01:29:56;7.60;99.90
29687;DHT22;16599;47.078;15.536;2023-04-24T01:32:24;7.60;99.90
29687;DHT22;16599;47.078;15.536;2023-04-24T01:34:51;7.50;99.90
29687;DHT22;16599;47.078;15.536;2023-04-24T01:37:18;7.50;99.90
29687;DHT22;16599;47.078;15.536;2023-04-24T01:39:45;7.50;99.90
29687;DHT22;16599;47.078;15.536;2023-04-24T01:42:13;7.50;99.90
29687;DHT22;16599;47.078;15.536;2023-04-24T01:44:40;7.40;99.90
29687;DHT22;16599;47.078;15.536;2023-04-24T01:47:07;7.50;99.90
29687;DHT22;16599;47.078;15.536;2023-04-24T01:49:34;7.50;99.90
29687;DHT22;16599;47.078;15.536;2023-04-24T01:52:01;7.30;99.90
29687;DHT22;16599;47.078;15.536;2023-04-24T01:54:28;7.00;99.90
29687;DHT22;16599;47.078;15.536;2023-04-24T01:56:55;7.10;99.90
29687;DHT22;16599;47.078;15.536;2023-04-24T01:59:23;7.20;99.90
29687;DHT22;16599;47.078;15.536;2023-04-24T02:01:51;7.10;99.90
29687;DHT22;16599;47.078;15.536;2023-04-24T02:04:18;7.20;99.90
29687;DHT22;16599;47.078;15.536;2023-04-24T02:06:45;7.40;99.90
29687;DHT22;16599;47.078;15.536;2023-04-24T02:09:12;7.30;99.90
29687;DHT22;16599;47.078;15.536;2023-04-24T02:11:39;7.00;99.90
29687;DHT22;16599;47.078;15.536;2023-04-24T02:14:06;6.80;99.90
29687;DHT22;16599;47.078;15.536;2023-04-24T02:16:32;6.90;99.90
29687;DHT22;16599;47.078;15.536;2023-04-24T02:19:00;6.90;99.90
29687;DHT22;16599;47.078;15.536;2023-04-24T02:21:27;6.90;99.90
29687;DHT22;16599;47.078;15.536;2023-04-24T02:23:54;7.10;99.90
29687;DHT22;16599;47.078;15.536;2023-04-24T02:26:21;7.30;99.90
29687;DHT22;16599;47.078;15.536;2023-04-24T02:28:48;7.40;99.90
29687;DHT22;16599;47.078;15.536;2023-04-24T02:31:15;7.10;99.90
29687;DHT22;16599;47.078;15.536;2023-04-24T02:33:42;7.10;99.90
29687;DHT22;16599;47.078;15.536;2023-04-24T02:36:08;7.30;99.90
29687;DHT22;16599;47.078;15.536;2023-04-24T02:38:35;7.50;99.90
29687;DHT22;16599;47.078;15.536;2023-04-24T02:41:02;7.50;99.90
29687;DHT22;16599;47.078;15.536;2023-04-24T02:43:33;7.60;99.90
29687;DHT22;16599;47.078;15.536;2023-04-24T02:46:00;7.60;99.90
29687;DHT22;16599;47.078;15.536;2023-04-24T02:48:27;7.60;99.90
29687;DHT22;16599;47.078;15.536;2023-04-24T02:50:54;7.60;99.90
29687;DHT22;16599;47.078;15.536;2023-04-24T02:53:21;7.60;99.90
29687;DHT22;16599;47.078;15.536;2023-04-24T02:55:48;7.60;99.90
29687;DHT22;16599;47.078;15.536;2023-04-24T02:58:14;7.60;99.90
29687;DHT22;16599;47.078;15.536;2023-04-24T03:00:42;7.60;99.90
29687;DHT22;16599;47.078;15.536;2023-04-24T03:03:10;7.50;99.90
29687;DHT22;16599;47.078;15.536;2023-04-24T03:05:37;7.50;99.90
29687;DHT22;16599;47.078;15.536;2023-04-24T03:08:03;7.60;99.90
29687;DHT22;16599;47.078;15.536;2023-04-24T03:10:30;7.60;99.90
29687;DHT22;16599;47.078;15.536;2023-04-24T03:12:58;7.60;99.90
29687;DHT22;16599;47.078;15.536;2023-04-24T03:15:25;7.50;99.90
29687;DHT22;16599;47.078;15.536;2023-04-24T03:17:52;7.30;99.90
29687;DHT22;16599;47.078;15.536;2023-04-24T03:20:22;7.00;99.90
29687;DHT22;16599;47.078;15.536;2023-04-24T03:22:49;7.10;99.90
29687;DHT22;16599;47.078;15.536;2023-04-24T03:25:16;7.20;99.90
29687;DHT22;16599;47.078;15.536;2023-04-24T03:27:42;7.20;99.90
29687;DHT22;16599;47.078;15.536;2023-04-24T03:30:09;7.30;99.90
29687;DHT22;16599;47.078;15.536;2023-04-24T03:32:36;7.40;99.90
29687;DHT22;16599;47.078;15.536;2023-04-24T03:35:08;7.50;99.90
29687;DHT22;16599;47.078;15.536;2023-04-24T03:37:35;7.30;99.90
29687;DHT22;16599;47.078;15.536;2023-04-24T03:40:03;7.30;99.90
29687;DHT22;16599;47.078;15.536;2023-04-24T03:42:29;7.40;99.90
29687;DHT22;16599;47.078;15.536;2023-04-24T03:44:56;7.40;99.90
29687;DHT22;16599;47.078;15.536;2023-04-24T03:47:23;7.10;99.90
29687;DHT22;16599;47.078;15.536;2023-04-24T03:49:50;7.10;99.90
29687;DHT22;16599;47.078;15.536;2023-04-24T03:52:17;7.10;99.90
29687;DHT22;16599;47.078;15.536;2023-04-24T03:54:44;7.20;99.90
29687;DHT22;16599;47.078;15.536;2023-04-24T03:57:11;7.30;99.90
29687;DHT22;16599;47.078;15.536;2023-04-24T03:59:38;7.30;99.90
29687;DHT22;16599;47.078;15.536;2023-04-24T04:02:04;7.20;99.90
29687;DHT22;16599;47.078;15.536;2023-04-24T04:04:31;7.10;99.90
29687;DHT22;16599;47.078;15.536;2023-04-24T04:06:58;7.10;99.90
29687;DHT22;16599;47.078;15.536;2023-04-24T04:09:27;7.10;99.90
29687;DHT22;16599;47.078;15.536;2023-04-24T04:11:54;7.10;99.90
29687;DHT22;16599;47.078;15.536;2023-04-24T04:14:22;6.90;99.90
29687;DHT22;16599;47.078;15.536;2023-04-24T04:16:50;7.00;99.90
29687;DHT22;16599;47.078;15.536;2023-04-24T04:19:20;7.10;99.90
29687;DHT22;16599;47.078;15.536;2023-04-24T04:21:47;7.20;99.90
29687;DHT22;16599;47.078;15.536;2023-04-24T04:24:19;7.10;99.90
29687;DHT22;16599;47.078;15.536;2023-04-24T04:26:47;7.10;99.90
29687;DHT22;16599;47.078;15.536;2023-04-24T04:29:14;7.20;99.90
29687;DHT22;16599;47.078;15.536;2023-04-24T04:31:44;7.00;99.90
29687;DHT22;16599;47.078;15.536;2023-04-24T04:34:11;7.10;99.90
29687;DHT22;16599;47.078;15.536;2023-04-24T04:36:39;7.20;99.90
29687;DHT22;16599;47.078;15.536;2023-04-24T04:39:07;7.30;99.90
29687;DHT22;16599;47.078;15.536;2023-04-24T04:41:34;7.30;99.90
29687;DHT22;16599;47.078;15.536;2023-04-24T04:44:04;7.30;99.90
29687;DHT22;16599;47.078;15.536;2023-04-24T04:46:31;7.20;99.90
29687;DHT22;16599;47.078;15.536;2023-04-24T04:49:00;7.30;99.90
29687;DHT22;16599;47.078;15.536;2023-04-24T04:51:28;7.30;99.90
29687;DHT22;16599;47.078;15.536;2023-04-24T04:53:55;7.30;99.90
29687;DHT22;16599;47.078;15.536;2023-04-24T04:56:21;7.30;99.90
29687;DHT22;16599;47.078;15.536;2023-04-24T04:58:48;7.60;99.90
29687;DHT22;16599;47.078;15.536;2023-04-24T05:01:15;7.70;99.90
29687;DHT22;16599;47.078;15.536;2023-04-24T05:03:42;7.70;99.90
29687;DHT22;16599;47.078;15.536;2023-04-24T05:06:09;7.80;99.90
29687;DHT22;16599;47.078;15.536;2023-04-24T05:08:36;7.80;99.90
29687;DHT22;16599;47.078;15.536;2023-04-24T05:11:03;7.80;99.90
29687;DHT22;16599;47.078;15.536;2023-04-24T05:13:30;7.90;99.90
29687;DHT22;16599;47.078;15.536;2023-04-24T05:16:06;7.80;99.90
29687;DHT22;16599;47.078;15.536;2023-04-24T05:18:33;7.80;99.90
29687;DHT22;16599;47.078;15.536;2023-04-24T05:21:00;7.90;99.90
29687;DHT22;16599;47.078;15.536;2023-04-24T05:23:27;8.00;99.90
29687;DHT22;16599;47.078;15.536;2023-04-24T05:25:54;8.10;99.90
29687;DHT22;16599;47.078;15.536;2023-04-24T05:28:21;8.20;99.90
29687;DHT22;16599;47.078;15.536;2023-04-24T05:30:48;8.30;99.90
29687;DHT22;16599;47.078;15.536;2023-04-24T05:33:15;8.40;99.90
29687;DHT22;16599;47.078;15.536;2023-04-24T05:35:42;8.40;99.90
29687;DHT22;16599;47.078;15.536;2023-04-24T05:38:13;8.40;99.90
29687;DHT22;16599;47.078;15.536;2023-04-24T05:40:40;8.50;99.90
29687;DHT22;16599;47.078;15.536;2023-04-24T05:43:07;8.50;99.90
29687;DHT22;16599;47.078;15.536;2023-04-24T05:45:34;8.60;99.90
29687;DHT22;16599;47.078;15.536;2023-04-24T05:48:03;8.70;99.90
29687;DHT22;16599;47.078;15.536;2023-04-24T05:50:30;8.70;99.90
29687;DHT22;16599;47.078;15.536;2023-04-24T05:52:57;8.70;99.90
29687;DHT22;16599;47.078;15.536;2023-04-24T05:55:28;8.80;99.90
29687;DHT22;16599;47.078;15.536;2023-04-24T05:57:55;8.80;99.90
29687;DHT22;16599;47.078;15.536;2023-04-24T06:00:22;8.80;99.90
29687;DHT22;16599;47.078;15.536;2023-04-24T06:02:49;8.90;99.90
29687;DHT22;16599;47.078;15.536;2023-04-24T06:05:16;8.90;99.90
29687;DHT22;16599;47.078;15.536;2023-04-24T06:07:44;9.00;99.90
29687;DHT22;16599;47.078;15.536;2023-04-24T06:10:11;9.10;99.90
29687;DHT22;16599;47.078;15.536;2023-04-24T06:12:38;9.10;99.90
29687;DHT22;16599;47.078;15.536;2023-04-24T06:15:05;9.20;99.90
29687;DHT22;16599;47.078;15.536;2023-04-24T06:17:32;9.30;99.90
29687;DHT22;16599;47.078;15.536;2023-04-24T06:19:59;9.40;99.90
29687;DHT22;16599;47.078;15.536;2023-04-24T06:22:26;9.40;99.90
29687;DHT22;16599;47.078;15.536;2023-04-24T06:24:53;9.60;99.90
29687;DHT22;16599;47.078;15.536;2023-04-24T06:27:19;9.70;99.90
29687;DHT22;16599;47.078;15.536;2023-04-24T06:29:46;9.80;99.90
29687;DHT22;16599;47.078;15.536;2023-04-24T06:32:24;9.90;99.90
29687;DHT22;16599;47.078;15.536;2023-04-24T06:34:52;10.00;99.90
29687;DHT22;16599;47.078;15.536;2023-04-24T06:37:20;10.20;99.90
29687;DHT22;16599;47.078;15.536;2023-04-24T06:39:47;10.40;99.90
29687;DHT22;16599;47.078;15.536;2023-04-24T06:42:14;10.60;99.90
29687;DHT22;16599;47.078;15.536;2023-04-24T06:44:40;10.80;99.90
29687;DHT22;16599;47.078;15.536;2023-04-24T06:47:08;10.90;99.90
29687;DHT22;16599;47.078;15.536;2023-04-24T06:49:38;10.90;99.90
29687;DHT22;16599;47.078;15.536;2023-04-24T06:52:05;11.00;99.90
29687;DHT22;16599;47.078;15.536;2023-04-24T06:54:33;11.20;99.90
29687;DHT22;16599;47.078;15.536;2023-04-24T06:57:00;11.30;99.90
29687;DHT22;16599;47.078;15.536;2023-04-24T06:59:27;11.60;99.90
29687;DHT22;16599;47.078;15.536;2023-04-24T07:01:55;11.60;99.90
29687;DHT22;16599;47.078;15.536;2023-04-24T07:04:22;11.60;99.90
29687;DHT22;16599;47.078;15.536;2023-04-24T07:06:49;11.70;99.90
29687;DHT22;16599;47.078;15.536;2023-04-24T07:09:16;11.70;99.90
29687;DHT22;16599;47.078;15.536;2023-04-24T07:11:45;11.90;99.90
29687;DHT22;16599;47.078;15.536;2023-04-24T07:14:12;11.90;99.90
29687;DHT22;16599;47.078;15.536;2023-04-24T07:16:39;12.00;99.90
29687;DHT22;16599;47.078;15.536;2023-04-24T07:19:06;12.10;99.90
29687;DHT22;16599;47.078;15.536;2023-04-24T07:21:33;12.10;99.90
29687;DHT22;16599;47.078;15.536;2023-04-24T07:24:00;12.20;99.90
29687;DHT22;16599;47.078;15.536;2023-04-24T07:26:29;12.10;99.90
29687;DHT22;16599;47.078;15.536;2023-04-24T07:28:56;12.00;99.90
29687;DHT22;16599;47.078;15.536;2023-04-24T07:31:23;12.00;99.90
29687;DHT22;16599;47.078;15.536;2023-04-24T07:33:50;12.00;99.90
29687;DHT22;16599;47.078;15.536;2023-04-24T07:36:17;11.90;99.90
29687;DHT22;16599;47.078;15.536;2023-04-24T07:38:45;11.80;99.90
29687;DHT22;16599;47.078;15.536;2023-04-24T07:41:13;11.80;99.90
29687;DHT22;16599;47.078;15.536;2023-04-24T07:43:40;11.80;99.90
29687;DHT22;16599;47.078;15.536;2023-04-24T07:46:08;11.70;99.90
29687;DHT22;16599;47.078;15.536;2023-04-24T07:48:36;11.70;99.90
29687;DHT22;16599;47.078;15.536;2023-04-24T07:51:03;11.60;99.90
29687;DHT22;16599;47.078;15.536;2023-04-24T07:53:29;11.50;99.90
29687;DHT22;16599;47.078;15.536;2023-04-24T07:55:56;11.50;99.90
29687;DHT22;16599;47.078;15.536;2023-04-24T07:58:23;11.50;99.90
29687;DHT22;16599;47.078;15.536;2023-04-24T08:00:50;11.40;99.90
29687;DHT22;16599;47.078;15.536;2023-04-24T08:03:17;11.30;99.90
29687;DHT22;16599;47.078;15.536;2023-04-24T08:05:46;11.30;99.90
29687;DHT22;16599;47.078;15.536;2023-04-24T08:08:13;11.30;99.90
29687;DHT22;16599;47.078;15.536;2023-04-24T08:10:41;11.30;99.90
29687;DHT22;16599;47.078;15.536;2023-04-24T08:13:07;11.30;99.90
29687;DHT22;16599;47.078;15.536;2023-04-24T08:15:34;11.20;99.90
29687;DHT22;16599;47.078;15.536;2023-04-24T08:18:01;11.20;99.90
29687;DHT22;16599;47.078;15.536;2023-04-24T08:20:28;11.20;99.90
29687;DHT22;16599;47.078;15.536;2023-04-24T08:22:56;11.30;99.90
29687;DHT22;16599;47.078;15.536;2023-04-24T08:25:23;11.30;99.90
29687;DHT22;16599;47.078;15.536;2023-04-24T08:27:51;11.30;99.90
29687;DHT22;16599;47.078;15.536;2023-04-24T08:30:18;11.30;99.90
29687;DHT22;16599;47.078;15.536;2023-04-24T08:36:52;11.20;99.90
29687;DHT22;16599;47.078;15.536;2023-04-24T08:39:19;11.10;99.90
29687;DHT22;16599;47.078;15.536;2023-04-24T08:41:48;11.20;99.90
29687;DHT22;16599;47.078;15.536;2023-04-24T08:44:15;11.20;99.90
29687;DHT22;16599;47.078;15.536;2023-04-24T08:46:43;11.20;99.90
29687;DHT22;16599;47.078;15.536;2023-04-24T08:49:15;11.20;99.90
29687;DHT22;16599;47.078;15.536;2023-04-24T08:51:44;11.10;99.90
29687;DHT22;16599;47.078;15.536;2023-04-24T08:54:12;11.10;99.90
29687;DHT22;16599;47.078;15.536;2023-04-24T08:56:40;11.10;99.90
29687;DHT22;16599;47.078;15.536;2023-04-24T08:59:10;11.10;99.90
29687;DHT22;16599;47.078;15.536;2023-04-24T09:01:37;11.10;99.90
29687;DHT22;16599;47.078;15.536;2023-04-24T09:04:09;11.10;99.90
29687;DHT22;16599;47.078;15.536;2023-04-24T09:06:42;11.00;99.90
29687;DHT22;16599;47.078;15.536;2023-04-24T09:09:10;11.00;99.90
29687;DHT22;16599;47.078;15.536;2023-04-24T09:11:38;11.00;99.90
29687;DHT22;16599;47.078;15.536;2023-04-24T09:14:06;11.10;99.90
29687;DHT22;16599;47.078;15.536;2023-04-24T09:16:35;11.10;99.90
29687;DHT22;16599;47.078;15.536;2023-04-24T09:19:02;11.20;99.90
29687;DHT22;16599;47.078;15.536;2023-04-24T09:21:34;11.20;99.90
29687;DHT22;16599;47.078;15.536;2023-04-24T09:24:03;11.20;99.90
29687;DHT22;16599;47.078;15.536;2023-04-24T09:26:32;11.20;99.90
29687;DHT22;16599;47.078;15.536;2023-04-24T09:29:03;11.20;99.90
29687;DHT22;16599;47.078;15.536;2023-04-24T09:31:30;11.20;99.90
29687;DHT22;16599;47.078;15.536;2023-04-24T09:33:59;11.20;99.90
29687;DHT22;16599;47.078;15.536;2023-04-24T09:36:32;11.10;99.90
29687;DHT22;16599;47.078;15.536;2023-04-24T09:39:06;11.20;99.90
29687;DHT22;16599;47.078;15.536;2023-04-24T09:41:53;11.20;99.90
29687;DHT22;16599;47.078;15.536;2023-04-24T09:44:24;11.30;99.90
29687;DHT22;16599;47.078;15.536;2023-04-24T09:46:54;11.30;99.90
29687;DHT22;16599;47.078;15.536;2023-04-24T09:49:26;11.40;99.90
29687;DHT22;16599;47.078;15.536;2023-04-24T09:52:15;11.40;99.90
29687;DHT22;16599;47.078;15.536;2023-04-24T09:54:40;11.40;99.90
29687;DHT22;16599;47.078;15.536;2023-04-24T09:57:09;11.50;99.90
29687;DHT22;16599;47.078;15.536;2023-04-24T09:59:42;11.20;99.90
29687;DHT22;16599;47.078;15.536;2023-04-24T10:02:18;11.30;99.90
29687;DHT22;16599;47.078;15.536;2023-04-24T10:04:56;11.30;99.90
29687;DHT22;16599;47.078;15.536;2023-04-24T10:07:26;11.10;99.90
29687;DHT22;16599;47.078;15.536;2023-04-24T10:09:53;11.10;99.90
29687;DHT22;16599;47.078;15.536;2023-04-24T10:12:21;11.20;99.90
29687;DHT22;16599;47.078;15.536;2023-04-24T10:14:49;11.10;99.90
29687;DHT22;16599;47.078;15.536;2023-04-24T10:17:17;11.20;99.90
29687;DHT22;16599;47.078;15.536;2023-04-24T10:19:47;11.30;99.90
29687;DHT22;16599;47.078;15.536;2023-04-24T10:22:15;11.30;99.90
29687;DHT22;16599;47.078;15.536;2023-04-24T10:24:45;11.40;99.90
29687;DHT22;16599;47.078;15.536;2023-04-24T10:27:13;11.30;99.90
29687;DHT22;16599;47.078;15.536;2023-04-24T10:29:43;11.40;99.90
29687;DHT22;16599;47.078;15.536;2023-04-24T10:32:11;11.30;99.90
29687;DHT22;16599;47.078;15.536;2023-04-24T10:34:38;11.70;99.90
29687;DHT22;16599;47.078;15.536;2023-04-24T10:37:05;11.80;99.90
29687;DHT22;16599;47.078;15.536;2023-04-24T10:39:31;11.90;99.90
29687;DHT22;16599;47.078;15.536;2023-04-24T10:42:00;12.00;99.90
29687;DHT22;16599;47.078;15.536;2023-04-24T10:44:36;12.00;99.90
29687;DHT22;16599;47.078;15.536;2023-04-24T10:47:03;12.10;99.90
29687;DHT22;16599;47.078;15.536;2023-04-24T10:49:31;12.20;99.90
29687;DHT22;16599;47.078;15.536;2023-04-24T10:52:04;12.30;99.90
29687;DHT22;16599;47.078;15.536;2023-04-24T10:54:35;12.10;99.90
29687;DHT22;16599;47.078;15.536;2023-04-24T11:00:18;11.90;99.90
29687;DHT22;16599;47.078;15.536;2023-04-24T11:02:47;12.10;99.90
29687;DHT22;16599;47.078;15.536;2023-04-24T11:05:20;12.30;99.90
29687;DHT22;16599;47.078;15.536;2023-04-24T11:08:13;12.30;99.90
29687;DHT22;16599;47.078;15.536;2023-04-24T11:10:53;12.10;99.90
29687;DHT22;16599;47.078;15.536;2023-04-24T11:13:22;12.20;99.90
29687;DHT22;16599;47.078;15.536;2023-04-24T11:16:25;12.20;99.90
29687;DHT22;16599;47.078;15.536;2023-04-24T11:21:46;12.60;99.90
29687;DHT22;16599;47.078;15.536;2023-04-24T11:27:06;12.70;99.90
29687;DHT22;16599;47.078;15.536;2023-04-24T11:29:45;12.40;99.90
29687;DHT22;16599;47.078;15.536;2023-04-24T11:32:41;12.60;99.90
29687;DHT22;16599;47.078;15.536;2023-04-24T11:35:22;12.50;99.90
29687;DHT22;16599;47.078;15.536;2023-04-24T11:37:52;12.60;99.90
29687;DHT22;16599;47.078;15.536;2023-04-24T11:40:39;12.40;99.90
29687;DHT22;16599;47.078;15.536;2023-04-24T11:43:07;12.50;99.90
29687;DHT22;16599;47.078;15.536;2023-04-24T11:45:35;12.50;99.90
29687;DHT22;16599;47.078;15.536;2023-04-24T11:48:03;12.50;99.90
29687;DHT22;16599;47.078;15.536;2023-04-24T11:50:30;12.50;99.90
29687;DHT22;16599;47.078;15.536;2023-04-24T11:52:57;12.50;99.90
29687;DHT22;16599;47.078;15.536;2023-04-24T11:55:27;12.50;99.90
29687;DHT22;16599;47.078;15.536;2023-04-24T11:57:56;12.50;99.90
29687;DHT22;16599;47.078;15.536;2023-04-24T12:00:29;12.60;99.90
29687;DHT22;16599;47.078;15.536;2023-04-24T12:03:10;12.50;99.90
29687;DHT22;16599;47.078;15.536;2023-04-24T12:06:08;12.50;99.90
29687;DHT22;16599;47.078;15.536;2023-04-24T12:08:36;12.50;99.90
29687;DHT22;16599;47.078;15.536;2023-04-24T12:11:05;12.50;99.90
29687;DHT22;16599;47.078;15.536;2023-04-24T12:13:36;12.60;99.90
29687;DHT22;16599;47.078;15.536;2023-04-24T12:16:03;12.60;99.90
29687;DHT22;16599;47.078;15.536;2023-04-24T12:18:31;12.60;99.90
29687;DHT22;16599;47.078;15.536;2023-04-24T12:21:17;12.60;99.90
29687;DHT22;16599;47.078;15.536;2023-04-24T12:23:48;12.60;99.90
29687;DHT22;16599;47.078;15.536;2023-04-24T12:26:20;12.60;99.90
29687;DHT22;16599;47.078;15.536;2023-04-24T12:28:48;12.60;99.90
29687;DHT22;16599;47.078;15.536;2023-04-24T12:31:16;12.60;99.90
29687;DHT22;16599;47.078;15.536;2023-04-24T12:33:43;12.60;99.90
29687;DHT22;16599;47.078;15.536;2023-04-24T12:36:11;12.50;99.90
29687;DHT22;16599;47.078;15.536;2023-04-24T12:38:39;12.50;99.90
29687;DHT22;16599;47.078;15.536;2023-04-24T12:41:13;12.60;99.90
29687;DHT22;16599;47.078;15.536;2023-04-24T12:43:51;12.60;99.90
29687;DHT22;16599;47.078;15.536;2023-04-24T12:46:18;12.70;99.90
29687;DHT22;16599;47.078;15.536;2023-04-24T12:48:48;12.80;99.90
29687;DHT22;16599;47.078;15.536;2023-04-24T12:51:14;12.90;99.90
29687;DHT22;16599;47.078;15.536;2023-04-24T12:53:41;12.90;99.90
29687;DHT22;16599;47.078;15.536;2023-04-24T12:56:09;13.00;99.90
29687;DHT22;16599;47.078;15.536;2023-04-24T12:58:36;13.20;99.90
29687;DHT22;16599;47.078;15.536;2023-04-24T13:01:02;13.20;99.90
29687;DHT22;16599;47.078;15.536;2023-04-24T13:03:29;13.20;99.90
29687;DHT22;16599;47.078;15.536;2023-04-24T13:05:56;13.10;99.90
29687;DHT22;16599;47.078;15.536;2023-04-24T13:08:23;13.20;99.90
29687;DHT22;16599;47.078;15.536;2023-04-24T13:10:50;13.20;99.90
29687;DHT22;16599;47.078;15.536;2023-04-24T13:13:18;13.20;99.90
29687;DHT22;16599;47.078;15.536;2023-04-24T13:15:45;13.10;99.90
29687;DHT22;16599;47.078;15.536;2023-04-24T13:18:12;13.20;99.90
29687;DHT22;16599;47.078;15.536;2023-04-24T13:20:38;13.20;99.90
29687;DHT22;16599;47.078;15.536;2023-04-24T13:23:07;13.30;99.90
29687;DHT22;16599;47.078;15.536;2023-04-24T13:25:35;13.30;99.90
29687;DHT22;16599;47.078;15.536;2023-04-24T13:28:03;13.30;99.90
29687;DHT22;16599;47.078;15.536;2023-04-24T13:30:31;13.40;99.90
29687;DHT22;16599;47.078;15.536;2023-04-24T13:32:58;13.30;99.90
29687;DHT22;16599;47.078;15.536;2023-04-24T13:35:25;13.10;99.90
29687;DHT22;16599;47.078;15.536;2023-04-24T13:37:52;12.90;99.90
29687;DHT22;16599;47.078;15.536;2023-04-24T13:40:19;13.00;99.90
29687;DHT22;16599;47.078;15.536;2023-04-24T13:42:46;13.10;99.90
29687;DHT22;16599;47.078;15.536;2023-04-24T13:45:13;13.10;99.90
29687;DHT22;16599;47.078;15.536;2023-04-24T13:47:51;13.10;99.90
29687;DHT22;16599;47.078;15.536;2023-04-24T13:50:19;13.20;99.90
29687;DHT22;16599;47.078;15.536;2023-04-24T13:52:46;13.20;99.90
29687;DHT22;16599;47.078;15.536;2023-04-24T13:55:13;13.10;99.90
29687;DHT22;16599;47.078;15.536;2023-04-24T13:57:40;13.20;99.90
29687;DHT22;16599;47.078;15.536;2023-04-24T14:00:07;13.10;99.90
29687;DHT22;16599;47.078;15.536;2023-04-24T14:02:37;13.20;99.90
29687;DHT22;16599;47.078;15.536;2023-04-24T14:05:04;13.20;99.90
29687;DHT22;16599;47.078;15.536;2023-04-24T14:07:32;13.30;99.90
29687;DHT22;16599;47.078;15.536;2023-04-24T14:09:59;13.20;99.90
29687;DHT22;16599;47.078;15.536;2023-04-24T14:12:26;13.10;99.90
29687;DHT22;16599;47.078;15.536;2023-04-24T14:14:53;13.10;99.90
29687;DHT22;16599;47.078;15.536;2023-04-24T14:17:20;13.10;99.90
29687;DHT22;16599;47.078;15.536;2023-04-24T14:19:47;13.00;99.90
29687;DHT22;16599;47.078;15.536;2023-04-24T14:22:14;13.10;99.90
29687;DHT22;16599;47.078;15.536;2023-04-24T14:24:40;12.90;99.90
29687;DHT22;16599;47.078;15.536;2023-04-24T14:27:07;12.70;99.90
29687;DHT22;16599;47.078;15.536;2023-04-24T14:29:34;12.80;99.90
29687;DHT22;16599;47.078;15.536;2023-04-24T14:32:01;12.90;99.90
29687;DHT22;16599;47.078;15.536;2023-04-24T14:34:28;12.90;99.90
29687;DHT22;16599;47.078;15.536;2023-04-24T14:36:55;12.80;99.90
29687;DHT22;16599;47.078;15.536;2023-04-24T14:39:22;12.80;99.90
29687;DHT22;16599;47.078;15.536;2023-04-24T14:41:48;12.70;99.90
29687;DHT22;16599;47.078;15.536;2023-04-24T14:44:15;12.80;99.90
29687;DHT22;16599;47.078;15.536;2023-04-24T14:46:42;12.70;99.90
29687;DHT22;16599;47.078;15.536;2023-04-24T14:49:09;12.70;99.90
29687;DHT22;16599;47.078;15.536;2023-04-24T14:51:36;12.70;99.90
29687;DHT22;16599;47.078;15.536;2023-04-24T14:54:03;12.70;99.90
29687;DHT22;16599;47.078;15.536;2023-04-24T14:56:30;12.60;99.90
29687;DHT22;16599;47.078;15.536;2023-04-24T14:58:57;12.60;99.90
29687;DHT22;16599;47.078;15.536;2023-04-24T15:01:24;12.50;99.90
29687;DHT22;16599;47.078;15.536;2023-04-24T15:03:51;12.50;99.90
29687;DHT22;16599;47.078;15.536;2023-04-24T15:06:19;12.40;99.90
29687;DHT22;16599;47.078;15.536;2023-04-24T15:08:46;12.40;99.90
29687;DHT22;16599;47.078;15.536;2023-04-24T15:11:16;12.50;99.90
29687;DHT22;16599;47.078;15.536;2023-04-24T15:13:43;12.50;99.90
29687;DHT22;16599;47.078;15.536;2023-04-24T15:16:12;12.60;99.90
29687;DHT22;16599;47.078;15.536;2023-04-24T15:18:39;12.50;99.90
29687;DHT22;16599;47.078;15.536;2023-04-24T15:21:06;12.50;99.90
29687;DHT22;16599;47.078;15.536;2023-04-24T15:23:33;12.40;99.90
29687;DHT22;16599;47.078;15.536;2023-04-24T15:26:01;12.50;99.90
29687;DHT22;16599;47.078;15.536;2023-04-24T15:28:28;12.30;99.90
29687;DHT22;16599;47.078;15.536;2023-04-24T15:30:55;12.40;99.90
29687;DHT22;16599;47.078;15.536;2023-04-24T15:33:22;12.30;99.90
29687;DHT22;16599;47.078;15.536;2023-04-24T15:35:49;12.20;99.90
29687;DHT22;16599;47.078;15.536;2023-04-24T15:38:17;12.10;99.90
29687;DHT22;16599;47.078;15.536;2023-04-24T15:40:44;12.00;99.90
29687;DHT22;16599;47.078;15.536;2023-04-24T15:43:11;12.00;99.90